createdAt,value
2023-01-09T00:00:29.652Z,13.07
2023-01-09T00:03:35.950Z,9.57
2023-01-09T00:06:43.596Z,10.87
2023-01-09T00:09:49.720Z,6.67
2023-01-09T00:12:57.512Z,7.47
2023-01-09T00:16:05.015Z,6.10
2023-01-09T00:19:11.256Z,5.93
2023-01-09T00:22:17.354Z,8.17
2023-01-09T00:25:24.110Z,5.37
2023-01-09T00:28:31.911Z,6.50
2023-01-09T00:31:38.196Z,7.93
2023-01-09T00:34:44.447Z,8.03
2023-01-09T00:37:50.834Z,7.33
2023-01-09T00:40:57.648Z,11.53
2023-01-09T00:44:09.967Z,11.30
2023-01-09T00:47:21.638Z,11.47
2023-01-09T00:50:32.433Z,12.97
2023-01-09T00:53:42.856Z,11.70
2023-01-09T00:56:50.289Z,14.70
2023-01-09T00:59:59.398Z,9.23
2023-01-09T01:03:06.107Z,8.17
2023-01-09T01:06:30.308Z,6.90
2023-01-09T01:09:36.965Z,5.70
2023-01-09T01:12:43.856Z,8.10
2023-01-09T01:15:51.617Z,7.13
2023-01-09T01:18:57.872Z,8.57
2023-01-09T01:22:04.034Z,9.17
2023-01-09T01:25:11.667Z,10.83
2023-01-09T01:28:18.155Z,16.30
2023-01-09T01:31:25.763Z,15.10
2023-01-09T01:34:32.223Z,16.13
2023-01-09T01:37:39.595Z,11.37
2023-01-09T01:40:45.887Z,11.00
2023-01-09T01:43:54.785Z,8.70
2023-01-09T01:47:03.142Z,6.90
2023-01-09T01:50:15.803Z,8.30
2023-01-09T01:53:26.716Z,7.60
2023-01-09T01:56:38.798Z,8.20
2023-01-09T01:59:50.477Z,9.30
2023-01-09T02:02:58.875Z,8.60
2023-01-09T02:06:06.102Z,9.90
2023-01-09T02:09:15.381Z,11.77
2023-01-09T02:12:24.908Z,10.03
2023-01-09T02:15:41.112Z,8.57
2023-01-09T02:18:52.463Z,7.50
2023-01-09T02:22:09.858Z,9.10
2023-01-09T02:25:46.531Z,9.10
2023-01-09T02:29:47.020Z,10.47
2023-01-09T02:33:07.843Z,10.20
2023-01-09T02:36:24.172Z,12.07
2023-01-09T02:39:38.673Z,11.87
2023-01-09T02:42:47.019Z,11.07
2023-01-09T02:45:53.441Z,10.47
2023-01-09T02:49:00.998Z,12.07
2023-01-09T02:52:34.955Z,11.13
2023-01-09T02:55:53.138Z,11.03
2023-01-09T02:59:15.272Z,11.53
2023-01-09T03:02:36.696Z,12.37
2023-01-09T03:05:51.147Z,11.40
2023-01-09T03:09:02.630Z,10.97
2023-01-09T03:12:18.302Z,13.50
2023-01-09T03:15:30.277Z,10.90
2023-01-09T03:18:38.511Z,14.13
2023-01-09T03:21:47.844Z,12.70
2023-01-09T03:24:54.059Z,16.17
2023-01-09T03:28:02.386Z,12.67
2023-01-09T03:31:08.540Z,11.23
2023-01-09T03:34:14.703Z,8.27
2023-01-09T03:37:22.527Z,10.17
2023-01-09T03:40:29.030Z,10.50
2023-01-09T03:43:36.058Z,7.60
2023-01-09T03:46:42.251Z,8.00
2023-01-09T03:49:48.288Z,8.50
2023-01-09T03:52:56.429Z,8.27
2023-01-09T03:56:03.097Z,10.63
2023-01-09T03:59:09.536Z,12.27
2023-01-09T04:02:15.789Z,12.07
2023-01-09T04:05:21.981Z,11.30
2023-01-09T04:08:30.740Z,10.20
2023-01-09T04:11:36.992Z,14.67
2023-01-09T04:14:43.154Z,15.77
2023-01-09T04:17:49.475Z,18.53
2023-01-09T04:20:55.650Z,20.80
2023-01-09T04:24:03.221Z,17.20
2023-01-09T04:27:09.387Z,17.93
2023-01-09T04:30:16.226Z,14.80
2023-01-09T04:33:22.611Z,13.00
2023-01-09T04:36:28.865Z,13.10
2023-01-09T04:39:37.558Z,13.40
2023-01-09T04:42:44.140Z,11.83
2023-01-09T04:45:50.773Z,11.47
2023-01-09T04:48:57.219Z,11.97
2023-01-09T04:52:03.454Z,10.10
2023-01-09T04:55:11.691Z,12.93
2023-01-09T04:58:17.949Z,12.13
2023-01-09T05:01:24.787Z,10.10
2023-01-09T05:04:31.609Z,11.70
2023-01-09T05:07:38.319Z,13.23
2023-01-09T05:10:46.203Z,14.10
2023-01-09T05:13:53.017Z,14.80
2023-01-09T05:16:59.416Z,16.27
2023-01-09T05:20:06.287Z,19.90
2023-01-09T05:23:12.279Z,24.30
2023-01-09T05:26:23.392Z,23.03
2023-01-09T05:29:29.751Z,19.60
2023-01-09T05:32:36.109Z,19.37
2023-01-09T05:35:42.156Z,22.57
2023-01-09T05:38:48.496Z,20.80
2023-01-09T05:41:56.281Z,18.87
2023-01-09T05:45:02.623Z,16.33
2023-01-09T05:48:08.922Z,15.63
2023-01-09T05:51:15.512Z,16.33
2023-01-09T05:54:21.888Z,19.83
2023-01-09T05:57:30.022Z,24.40
2023-01-09T06:00:36.280Z,20.23
2023-01-09T06:03:43.064Z,28.37
2023-01-09T06:10:15.595Z,29.70
2023-01-09T06:13:23.467Z,40.57
2023-01-09T06:16:29.918Z,23.73
2023-01-09T06:19:36.225Z,19.10
2023-01-09T06:22:44.883Z,23.83
2023-01-09T06:25:51.481Z,16.63
2023-01-09T06:29:01.016Z,19.10
2023-01-09T06:32:07.883Z,13.17
2023-01-09T06:35:14.384Z,10.60
2023-01-09T06:38:21.283Z,15.63
2023-01-09T06:41:27.536Z,14.70
2023-01-09T06:44:37.362Z,15.17
2023-01-09T06:47:43.689Z,16.40
2023-01-09T06:50:50.318Z,16.70
2023-01-09T06:53:56.665Z,18.07
2023-01-09T06:57:03.616Z,14.23
2023-01-09T07:00:13.160Z,17.33
2023-01-09T07:03:22.373Z,12.43
2023-01-09T07:06:30.099Z,13.07
2023-01-09T07:09:36.450Z,13.83
2023-01-09T07:12:42.704Z,13.90
2023-01-09T07:15:50.893Z,16.37
2023-01-09T07:18:57.423Z,17.40
2023-01-09T07:22:03.956Z,21.57
2023-01-09T07:25:10.605Z,23.00
2023-01-09T07:28:17.166Z,24.07
2023-01-09T07:31:24.745Z,25.43
2023-01-09T07:34:31.374Z,24.27
2023-01-09T07:37:37.780Z,31.17
2023-01-09T07:40:43.975Z,56.00
2023-01-09T07:43:50.340Z,39.80
2023-01-09T07:46:57.937Z,19.57
2023-01-09T07:50:04.573Z,14.60
2023-01-09T07:53:11.038Z,19.77
2023-01-09T07:56:17.401Z,20.80
2023-01-09T07:59:23.452Z,14.53
2023-01-09T08:02:31.227Z,13.47
2023-01-09T08:05:37.391Z,14.93
2023-01-09T08:08:44.386Z,17.43
2023-01-09T08:11:50.953Z,24.30
2023-01-09T08:14:57.716Z,21.83
2023-01-09T08:18:05.679Z,17.10
2023-01-09T08:21:12.627Z,17.43
2023-01-09T08:24:18.920Z,14.63
2023-01-09T08:27:25.193Z,13.63
2023-01-09T08:30:31.343Z,12.70
2023-01-09T08:33:40.493Z,15.93
2023-01-09T08:36:46.902Z,18.43
2023-01-09T08:39:53.665Z,17.63
2023-01-09T08:43:18.011Z,18.00
2023-01-09T08:46:41.360Z,16.33
2023-01-09T08:49:49.127Z,19.10
2023-01-09T08:52:55.649Z,18.80
2023-01-09T08:56:01.788Z,23.57
2023-01-09T08:59:08.177Z,27.90
2023-01-09T09:02:14.145Z,23.53
2023-01-09T09:05:23.080Z,21.47
2023-01-09T09:08:29.596Z,16.17
2023-01-09T09:11:35.984Z,19.30
2023-01-09T09:14:59.755Z,27.13
2023-01-09T09:18:09.383Z,28.07
2023-01-09T09:21:17.152Z,19.03
2023-01-09T09:24:23.848Z,17.73
2023-01-09T09:27:30.566Z,17.23
2023-01-09T09:30:39.291Z,29.10
2023-01-09T09:33:45.727Z,25.93
2023-01-09T09:36:53.468Z,20.20
2023-01-09T09:40:09.786Z,15.83
2023-01-09T09:43:59.857Z,12.60
2023-01-09T09:47:13.923Z,11.70
2023-01-09T09:50:40.417Z,12.43
2023-01-09T09:53:52.893Z,13.10
2023-01-09T09:57:01.055Z,17.50
2023-01-09T10:00:09.214Z,21.53
2023-01-09T10:03:33.983Z,29.43
2023-01-09T10:06:45.156Z,28.37
2023-01-09T10:09:55.919Z,23.87
2023-01-09T10:13:23.652Z,21.03
2023-01-09T10:16:41.826Z,10.47
2023-01-09T10:20:25.970Z,9.87
2023-01-09T10:24:06.481Z,8.87
2023-01-09T10:27:23.058Z,9.13
2023-01-09T10:30:36.319Z,5.63
2023-01-09T10:33:56.028Z,8.13
2023-01-09T10:37:12.359Z,8.60
2023-01-09T10:40:23.501Z,8.53
2023-01-09T10:43:37.410Z,9.00
2023-01-09T10:46:50.402Z,9.03
2023-01-09T10:49:58.067Z,8.53
2023-01-09T10:53:16.509Z,9.17
2023-01-09T10:56:25.654Z,7.90
2023-01-09T10:59:33.570Z,8.57
2023-01-09T11:02:40.087Z,9.67
2023-01-09T11:05:52.318Z,7.87
2023-01-09T11:09:01.560Z,7.23
2023-01-09T11:12:26.337Z,7.07
2023-01-09T11:15:34.225Z,8.23
2023-01-09T11:18:49.283Z,7.50
2023-01-09T11:22:08.111Z,7.67
2023-01-09T11:25:15.571Z,6.83
2023-01-09T11:28:22.228Z,6.77
2023-01-09T11:31:30.543Z,8.07
2023-01-09T11:34:39.191Z,7.97
2023-01-09T11:37:46.469Z,7.10
2023-01-09T11:40:55.806Z,5.77
2023-01-09T11:44:05.733Z,6.30
2023-01-09T11:47:35.794Z,11.87
2023-01-09T11:50:42.184Z,7.73
2023-01-09T11:54:22.213Z,14.80
2023-01-09T11:57:28.826Z,12.93
2023-01-09T12:00:45.609Z,9.97
2023-01-09T12:04:10.961Z,12.37
2023-01-09T12:07:35.621Z,14.90
2023-01-09T12:10:59.317Z,12.07
2023-01-09T12:14:16.607Z,10.33
2023-01-09T12:18:03.436Z,10.77
2023-01-09T12:21:33.997Z,19.37
2023-01-09T12:25:02.401Z,12.60
2023-01-09T12:28:48.142Z,15.63
2023-01-09T12:32:11.584Z,13.63
2023-01-09T12:35:30.280Z,13.90
2023-01-09T12:38:49.116Z,9.80
2023-01-09T12:42:18.573Z,13.30
2023-01-09T12:45:42.963Z,8.40
2023-01-09T12:49:12.888Z,8.27
2023-01-09T12:52:23.573Z,10.20
2023-01-09T12:55:36.211Z,34.00
2023-01-09T12:58:48.483Z,18.10
2023-01-09T13:01:55.561Z,15.23
2023-01-09T13:05:04.120Z,10.00
2023-01-09T13:08:16.919Z,12.83
2023-01-09T13:11:30.166Z,13.47
2023-01-09T13:14:50.414Z,13.20
2023-01-09T13:18:01.817Z,6.10
2023-01-09T13:21:09.784Z,7.57
2023-01-09T13:24:21.325Z,7.70
2023-01-09T13:27:34.673Z,14.37
2023-01-09T13:31:01.098Z,11.23
2023-01-09T13:34:21.567Z,11.83
2023-01-09T13:37:30.887Z,10.83
2023-01-09T13:40:38.228Z,10.47
2023-01-09T13:43:57.227Z,12.80
2023-01-09T13:47:04.673Z,10.80
2023-01-09T13:50:27.178Z,22.37
2023-01-09T13:53:49.576Z,22.03
2023-01-09T13:57:29.700Z,25.30
2023-01-09T14:00:55.887Z,24.00
2023-01-09T14:04:39.510Z,20.57
2023-01-09T14:07:49.210Z,19.87
2023-01-09T14:10:58.188Z,20.60
2023-01-09T14:14:09.239Z,17.83
2023-01-09T14:17:24.368Z,26.13
2023-01-09T14:20:38.002Z,28.37
2023-01-09T14:23:54.952Z,26.33
2023-01-09T14:27:03.631Z,29.07
2023-01-09T14:30:31.974Z,22.43
2023-01-09T14:33:40.077Z,25.83
2023-01-09T14:36:46.653Z,39.37
2023-01-09T14:39:53.375Z,25.10
2023-01-09T14:43:10.384Z,35.43
2023-01-09T14:46:19.812Z,39.47
2023-01-09T14:49:35.752Z,44.03
2023-01-09T14:52:49.086Z,46.77
2023-01-09T14:55:58.156Z,50.07
2023-01-09T14:59:11.624Z,44.27
2023-01-09T15:02:22.806Z,49.10
2023-01-09T15:05:32.899Z,42.20
2023-01-09T15:08:39.486Z,50.93
2023-01-09T15:11:46.465Z,46.53
2023-01-09T15:14:56.048Z,33.50
2023-01-09T15:18:06.537Z,30.87
2023-01-09T15:21:21.437Z,37.83
2023-01-09T15:24:30.558Z,20.97
2023-01-09T15:27:48.419Z,20.90
2023-01-09T15:30:57.472Z,18.00
2023-01-09T15:34:05.750Z,14.77
2023-01-09T15:37:26.823Z,18.70
2023-01-09T15:40:35.720Z,19.33
2023-01-09T15:43:45.370Z,30.80
2023-01-09T15:46:52.156Z,52.30
2023-01-09T15:49:59.932Z,52.57
2023-01-09T15:53:11.529Z,65.67
2023-01-09T15:56:24.276Z,64.17
2023-01-09T15:59:30.671Z,40.47
2023-01-09T16:02:54.675Z,21.10
2023-01-09T16:06:08.377Z,39.87
2023-01-09T16:09:21.204Z,34.30
2023-01-09T16:12:30.032Z,39.83
2023-01-09T16:15:36.745Z,41.67
2023-01-09T16:18:51.887Z,30.07
2023-01-09T16:21:58.859Z,31.03
2023-01-09T16:25:28.969Z,38.87
2023-01-09T16:28:35.695Z,28.57
2023-01-09T16:31:42.184Z,36.07
2023-01-09T16:34:52.259Z,19.43
2023-01-09T16:37:59.399Z,15.50
2023-01-09T16:41:40.713Z,12.10
2023-01-09T16:44:47.107Z,30.10
2023-01-09T16:47:53.754Z,40.93
2023-01-09T16:51:00.143Z,36.67
2023-01-09T16:54:06.807Z,42.20
2023-01-09T16:57:18.377Z,45.77
2023-01-09T17:00:24.938Z,44.23
2023-01-09T17:03:31.239Z,40.87
2023-01-09T17:06:39.117Z,47.67
2023-01-09T17:09:45.933Z,43.50
2023-01-09T17:12:53.559Z,41.77
2023-01-09T17:16:00.665Z,46.77
2023-01-09T17:19:06.883Z,44.43
2023-01-09T17:22:13.475Z,39.37
2023-01-09T17:25:36.879Z,33.63
2023-01-09T17:28:47.847Z,28.47
2023-01-09T17:31:54.362Z,27.27
2023-01-09T17:35:00.596Z,32.80
2023-01-09T17:38:07.085Z,24.93
2023-01-09T17:41:14.430Z,28.23
2023-01-09T17:44:22.165Z,31.13
2023-01-09T17:47:28.810Z,30.47
2023-01-09T17:50:36.469Z,32.83
2023-01-09T17:53:42.815Z,30.97
2023-01-09T17:56:51.348Z,40.17
2023-01-09T17:59:59.293Z,36.67
2023-01-09T18:03:07.660Z,37.97
2023-01-09T18:06:14.890Z,35.20
2023-01-09T18:09:20.966Z,28.23
2023-01-09T18:12:27.316Z,23.33
2023-01-09T18:15:34.727Z,19.33
2023-01-09T18:18:41.835Z,14.40
2023-01-09T18:21:48.153Z,20.57
2023-01-09T18:24:54.179Z,15.37
2023-01-09T18:28:01.235Z,14.40
2023-01-09T18:31:09.206Z,21.90
2023-01-09T18:34:15.492Z,21.30
2023-01-09T18:37:21.747Z,24.07
2023-01-09T18:40:28.011Z,22.07
2023-01-09T18:43:34.394Z,20.17
2023-01-09T18:46:43.654Z,21.93
2023-01-09T18:49:50.165Z,18.47
2023-01-09T18:52:56.350Z,20.33
2023-01-09T18:56:05.330Z,17.77
2023-01-09T18:59:12.409Z,20.37
2023-01-09T19:02:23.049Z,22.37
2023-01-09T19:05:29.648Z,23.70
2023-01-09T19:08:37.196Z,15.53
2023-01-09T19:11:44.515Z,17.47
2023-01-09T19:14:50.917Z,16.37
2023-01-09T19:17:59.026Z,17.93
2023-01-09T19:21:11.605Z,14.37
2023-01-09T19:24:20.301Z,16.33
2023-01-09T19:27:29.227Z,18.77
2023-01-09T19:30:36.858Z,32.80
2023-01-09T19:33:44.886Z,32.40
2023-01-09T19:36:51.704Z,34.60
2023-01-09T19:39:58.280Z,31.27
2023-01-09T19:43:04.626Z,22.10
2023-01-09T19:46:12.867Z,24.07
2023-01-09T19:49:20.840Z,39.93
2023-01-09T19:52:27.339Z,32.43
2023-01-09T19:55:33.676Z,27.83
2023-01-09T19:58:40.080Z,26.37
2023-01-09T20:01:48.072Z,28.00
2023-01-09T20:04:55.732Z,28.47
2023-01-09T20:08:06.297Z,30.40
2023-01-09T20:11:12.858Z,30.53
2023-01-09T20:14:20.925Z,32.23
2023-01-09T20:17:27.459Z,34.63
2023-01-09T20:20:35.327Z,29.83
2023-01-09T20:23:41.598Z,21.87
2023-01-09T20:26:47.944Z,22.47
2023-01-09T20:29:54.172Z,22.43
2023-01-09T20:33:00.646Z,23.47
2023-01-09T20:36:09.605Z,26.87
2023-01-09T20:39:16.130Z,32.10
2023-01-09T20:42:22.302Z,25.80
2023-01-09T20:45:28.885Z,19.80
2023-01-09T20:48:35.305Z,23.40
2023-01-09T20:51:46.147Z,23.60
2023-01-09T20:54:52.205Z,25.70
2023-01-09T20:57:58.747Z,38.20
2023-01-09T21:01:08.867Z,31.77
2023-01-09T21:04:15.272Z,35.30
2023-01-09T21:07:25.041Z,30.73
2023-01-09T21:10:31.268Z,34.77
2023-01-09T21:13:37.440Z,35.80
2023-01-09T21:16:53.718Z,37.90
2023-01-09T21:20:01.069Z,38.47
2023-01-09T21:23:10.474Z,30.77
2023-01-09T21:26:18.884Z,30.07
2023-01-09T21:29:25.564Z,25.20
2023-01-09T21:32:32.901Z,24.83
2023-01-09T21:35:39.152Z,27.83
2023-01-09T21:38:47.754Z,27.67
2023-01-09T21:42:11.309Z,38.00
2023-01-09T21:45:36.789Z,35.17
2023-01-09T21:48:43.267Z,31.47
2023-01-09T21:51:49.704Z,31.73
2023-01-09T21:54:58.885Z,31.50
2023-01-09T21:58:05.429Z,34.90
2023-01-09T22:01:11.962Z,29.03
2023-01-09T22:04:19.687Z,31.07
2023-01-09T22:07:26.438Z,30.87
2023-01-09T22:10:34.322Z,32.83
2023-01-09T22:13:40.660Z,23.63
2023-01-09T22:16:47.604Z,20.93
2023-01-09T22:19:54.025Z,17.87
2023-01-09T22:23:00.409Z,20.33
2023-01-09T22:26:13.237Z,17.53
2023-01-09T22:29:19.806Z,16.43
2023-01-09T22:32:26.127Z,20.53
2023-01-09T22:35:32.595Z,20.23
2023-01-09T22:38:39.669Z,17.30
2023-01-09T22:41:52.152Z,19.03
2023-01-09T22:44:58.716Z,16.60
2023-01-09T22:48:05.138Z,16.30
2023-01-09T22:51:14.767Z,17.40
2023-01-09T22:54:21.766Z,15.47
2023-01-09T22:57:29.748Z,15.50
2023-01-09T23:00:36.192Z,19.73
2023-01-09T23:03:42.625Z,16.30
2023-01-09T23:06:48.944Z,17.93
2023-01-09T23:09:56.457Z,18.27
2023-01-09T23:13:04.392Z,15.67
2023-01-09T23:16:11.048Z,10.80
2023-01-09T23:19:17.748Z,9.80
2023-01-09T23:22:25.998Z,11.77
2023-01-09T23:25:32.524Z,9.43
2023-01-09T23:28:40.456Z,11.53
2023-01-09T23:31:46.887Z,9.43
2023-01-09T23:34:53.151Z,10.17
2023-01-09T23:37:59.682Z,20.83
2023-01-09T23:41:07.308Z,15.13
2023-01-09T23:44:14.352Z,10.20
2023-01-09T23:47:21.080Z,6.10
2023-01-09T23:50:27.397Z,5.07
2023-01-09T23:53:34.025Z,7.77
2023-01-09T23:56:40.499Z,8.13
2023-01-09T23:59:48.179Z,7.63
